sensor_id;sensor_type;location;lat;lon;timestamp;temperature;humidity
25436;DHT22;13363;52.772;-3.890;2023-06-14T00:00:58;21.10;99.90
25436;DHT22;13363;52.772;-3.890;2023-06-14T00:03:24;20.80;99.90
25436;DHT22;13363;52.772;-3.890;2023-06-14T00:05:51;20.80;99.90
25436;DHT22;13363;52.772;-3.890;2023-06-14T00:08:17;20.80;99.90
25436;DHT22;13363;52.772;-3.890;2023-06-14T00:10:44;20.80;99.90
25436;DHT22;13363;52.772;-3.890;2023-06-14T00:13:11;20.70;99.90
25436;DHT22;13363;52.772;-3.890;2023-06-14T00:15:37;20.60;99.90
25436;DHT22;13363;52.772;-3.890;2023-06-14T00:18:03;20.50;99.90
25436;DHT22;13363;52.772;-3.890;2023-06-14T00:20:31;20.40;99.90
25436;DHT22;13363;52.772;-3.890;2023-06-14T00:22:59;20.50;99.90
25436;DHT22;13363;52.772;-3.890;2023-06-14T00:25:25;20.50;99.90
25436;DHT22;13363;52.772;-3.890;2023-06-14T00:32:44;20.50;99.90
25436;DHT22;13363;52.772;-3.890;2023-06-14T00:35:10;20.50;99.90
25436;DHT22;13363;52.772;-3.890;2023-06-14T00:37:36;20.40;99.90
25436;DHT22;13363;52.772;-3.890;2023-06-14T00:40:03;20.40;99.90
25436;DHT22;13363;52.772;-3.890;2023-06-14T00:47:23;20.30;99.90
25436;DHT22;13363;52.772;-3.890;2023-06-14T00:49:53;20.30;99.90
25436;DHT22;13363;52.772;-3.890;2023-06-14T00:52:23;20.20;99.90
25436;DHT22;13363;52.772;-3.890;2023-06-14T00:54:52;20.20;99.90
25436;DHT22;13363;52.772;-3.890;2023-06-14T00:57:18;20.20;99.90
25436;DHT22;13363;52.772;-3.890;2023-06-14T00:59:46;20.20;99.90
25436;DHT22;13363;52.772;-3.890;2023-06-14T01:02:13;20.20;99.90
25436;DHT22;13363;52.772;-3.890;2023-06-14T01:04:40;20.20;99.90
25436;DHT22;13363;52.772;-3.890;2023-06-14T01:17:50;19.80;99.90
25436;DHT22;13363;52.772;-3.890;2023-06-14T01:20:20;19.70;99.90
25436;DHT22;13363;52.772;-3.890;2023-06-14T01:22:53;19.70;99.90
25436;DHT22;13363;52.772;-3.890;2023-06-14T01:25:23;19.60;99.90
25436;DHT22;13363;52.772;-3.890;2023-06-14T01:28:00;19.50;99.90
25436;DHT22;13363;52.772;-3.890;2023-06-14T01:30:28;19.50;99.90
25436;DHT22;13363;52.772;-3.890;2023-06-14T01:32:55;19.30;99.90
25436;DHT22;13363;52.772;-3.890;2023-06-14T01:37:49;19.00;99.90
25436;DHT22;13363;52.772;-3.890;2023-06-14T01:40:17;18.50;99.90
25436;DHT22;13363;52.772;-3.890;2023-06-14T01:42:44;18.50;99.90
25436;DHT22;13363;52.772;-3.890;2023-06-14T01:45:11;18.40;99.90
25436;DHT22;13363;52.772;-3.890;2023-06-14T01:50:04;18.00;99.90
25436;DHT22;13363;52.772;-3.890;2023-06-14T01:52:31;18.00;99.90
25436;DHT22;13363;52.772;-3.890;2023-06-14T01:54:56;17.90;99.90
25436;DHT22;13363;52.772;-3.890;2023-06-14T01:57:24;17.70;99.90
25436;DHT22;13363;52.772;-3.890;2023-06-14T01:59:50;17.70;99.90
25436;DHT22;13363;52.772;-3.890;2023-06-14T02:02:17;17.70;99.90
25436;DHT22;13363;52.772;-3.890;2023-06-14T02:04:42;17.70;99.90
25436;DHT22;13363;52.772;-3.890;2023-06-14T02:07:08;17.70;99.90
25436;DHT22;13363;52.772;-3.890;2023-06-14T02:09:34;17.70;99.90
25436;DHT22;13363;52.772;-3.890;2023-06-14T02:12:01;17.70;99.90
25436;DHT22;13363;52.772;-3.890;2023-06-14T02:14:27;17.40;99.90
25436;DHT22;13363;52.772;-3.890;2023-06-14T02:16:53;17.20;99.90
25436;DHT22;13363;52.772;-3.890;2023-06-14T02:19:20;17.20;99.90
25436;DHT22;13363;52.772;-3.890;2023-06-14T02:24:13;17.10;99.90
25436;DHT22;13363;52.772;-3.890;2023-06-14T02:31:37;16.80;99.90
25436;DHT22;13363;52.772;-3.890;2023-06-14T02:34:03;16.70;99.90
25436;DHT22;13363;52.772;-3.890;2023-06-14T02:36:30;16.90;99.90
25436;DHT22;13363;52.772;-3.890;2023-06-14T02:38:56;16.80;99.90
25436;DHT22;13363;52.772;-3.890;2023-06-14T02:46:18;16.70;99.90
25436;DHT22;13363;52.772;-3.890;2023-06-14T02:48:43;16.60;99.90
25436;DHT22;13363;52.772;-3.890;2023-06-14T02:51:09;16.50;99.90
25436;DHT22;13363;52.772;-3.890;2023-06-14T02:58:29;16.50;99.90
25436;DHT22;13363;52.772;-3.890;2023-06-14T03:00:55;16.50;99.90
25436;DHT22;13363;52.772;-3.890;2023-06-14T03:03:21;16.50;99.90
25436;DHT22;13363;52.772;-3.890;2023-06-14T03:05:50;16.50;99.90
25436;DHT22;13363;52.772;-3.890;2023-06-14T03:08:17;16.30;99.90
25436;DHT22;13363;52.772;-3.890;2023-06-14T03:10:46;16.30;99.90
25436;DHT22;13363;52.772;-3.890;2023-06-14T03:13:12;16.40;99.90
25436;DHT22;13363;52.772;-3.890;2023-06-14T03:18:08;16.30;99.90
25436;DHT22;13363;52.772;-3.890;2023-06-14T03:20:35;16.30;99.90
25436;DHT22;13363;52.772;-3.890;2023-06-14T03:23:02;16.30;99.90
25436;DHT22;13363;52.772;-3.890;2023-06-14T03:25:29;16.30;99.90
25436;DHT22;13363;52.772;-3.890;2023-06-14T03:27:56;16.30;99.90
25436;DHT22;13363;52.772;-3.890;2023-06-14T03:30:22;16.20;99.90
25436;DHT22;13363;52.772;-3.890;2023-06-14T03:37:44;15.60;99.90
25436;DHT22;13363;52.772;-3.890;2023-06-14T03:40:12;15.40;99.90
25436;DHT22;13363;52.772;-3.890;2023-06-14T03:42:39;15.20;99.90
25436;DHT22;13363;52.772;-3.890;2023-06-14T03:45:06;15.10;99.90
25436;DHT22;13363;52.772;-3.890;2023-06-14T03:47:33;15.00;99.90
25436;DHT22;13363;52.772;-3.890;2023-06-14T03:52:26;14.90;99.90
25436;DHT22;13363;52.772;-3.890;2023-06-14T03:57:19;14.80;99.90
25436;DHT22;13363;52.772;-3.890;2023-06-14T03:59:45;14.70;99.90
25436;DHT22;13363;52.772;-3.890;2023-06-14T04:02:12;14.70;99.90
25436;DHT22;13363;52.772;-3.890;2023-06-14T04:04:41;14.50;99.90
25436;DHT22;13363;52.772;-3.890;2023-06-14T04:07:13;14.50;99.90
25436;DHT22;13363;52.772;-3.890;2023-06-14T04:09:40;14.40;99.90
25436;DHT22;13363;52.772;-3.890;2023-06-14T04:12:07;14.30;99.90
25436;DHT22;13363;52.772;-3.890;2023-06-14T04:17:00;14.20;99.90
25436;DHT22;13363;52.772;-3.890;2023-06-14T04:19:26;14.10;99.90
25436;DHT22;13363;52.772;-3.890;2023-06-14T04:26:45;14.10;99.90
25436;DHT22;13363;52.772;-3.890;2023-06-14T04:31:45;14.10;99.90
25436;DHT22;13363;52.772;-3.890;2023-06-14T04:34:12;14.10;99.90
25436;DHT22;13363;52.772;-3.890;2023-06-14T04:36:44;14.10;99.90
25436;DHT22;13363;52.772;-3.890;2023-06-14T04:39:19;14.10;99.90
25436;DHT22;13363;52.772;-3.890;2023-06-14T04:41:46;14.00;99.90
25436;DHT22;13363;52.772;-3.890;2023-06-14T04:44:13;14.00;99.90
25436;DHT22;13363;52.772;-3.890;2023-06-14T04:49:15;14.10;99.90
25436;DHT22;13363;52.772;-3.890;2023-06-14T04:51:42;14.10;99.90
25436;DHT22;13363;52.772;-3.890;2023-06-14T04:54:11;14.00;99.90
25436;DHT22;13363;52.772;-3.890;2023-06-14T04:56:43;14.00;99.90
25436;DHT22;13363;52.772;-3.890;2023-06-14T04:59:09;14.10;99.90
25436;DHT22;13363;52.772;-3.890;2023-06-14T05:01:37;14.10;99.90
25436;DHT22;13363;52.772;-3.890;2023-06-14T05:04:03;14.40;99.90
25436;DHT22;13363;52.772;-3.890;2023-06-14T05:06:30;14.70;99.90
25436;DHT22;13363;52.772;-3.890;2023-06-14T05:08:56;15.00;99.90
25436;DHT22;13363;52.772;-3.890;2023-06-14T05:11:22;15.00;99.90
25436;DHT22;13363;52.772;-3.890;2023-06-14T05:16:18;15.30;99.90
25436;DHT22;13363;52.772;-3.890;2023-06-14T05:18:46;15.00;99.90
25436;DHT22;13363;52.772;-3.890;2023-06-14T05:23:43;15.10;99.90
25436;DHT22;13363;52.772;-3.890;2023-06-14T05:26:10;13.10;99.90
25436;DHT22;13363;52.772;-3.890;2023-06-14T05:31:02;15.30;99.90
25436;DHT22;13363;52.772;-3.890;2023-06-14T05:33:28;15.40;99.90
25436;DHT22;13363;52.772;-3.890;2023-06-14T05:35:54;15.30;99.90
25436;DHT22;13363;52.772;-3.890;2023-06-14T05:38:21;15.70;99.90
25436;DHT22;13363;52.772;-3.890;2023-06-14T05:40:47;16.20;99.90
25436;DHT22;13363;52.772;-3.890;2023-06-14T05:43:13;16.80;99.90
25436;DHT22;13363;52.772;-3.890;2023-06-14T05:45:39;17.50;99.90
25436;DHT22;13363;52.772;-3.890;2023-06-14T05:48:05;17.20;99.90
25436;DHT22;13363;52.772;-3.890;2023-06-14T05:50:31;17.30;99.90
25436;DHT22;13363;52.772;-3.890;2023-06-14T05:52:56;17.50;99.90
25436;DHT22;13363;52.772;-3.890;2023-06-14T05:55:22;17.70;99.90
25436;DHT22;13363;52.772;-3.890;2023-06-14T05:57:48;18.10;99.90
25436;DHT22;13363;52.772;-3.890;2023-06-14T06:00:14;18.10;99.90
25436;DHT22;13363;52.772;-3.890;2023-06-14T06:02:44;18.20;99.90
25436;DHT22;13363;52.772;-3.890;2023-06-14T06:05:14;18.80;99.90
25436;DHT22;13363;52.772;-3.890;2023-06-14T06:07:41;19.20;99.90
25436;DHT22;13363;52.772;-3.890;2023-06-14T06:10:07;20.30;99.90
25436;DHT22;13363;52.772;-3.890;2023-06-14T06:12:33;20.60;99.90
25436;DHT22;13363;52.772;-3.890;2023-06-14T06:14:59;21.70;99.90
25436;DHT22;13363;52.772;-3.890;2023-06-14T06:17:26;22.80;99.90
25436;DHT22;13363;52.772;-3.890;2023-06-14T06:19:52;24.00;99.90
25436;DHT22;13363;52.772;-3.890;2023-06-14T06:22:17;24.70;99.90
25436;DHT22;13363;52.772;-3.890;2023-06-14T06:24:43;24.60;99.90
25436;DHT22;13363;52.772;-3.890;2023-06-14T06:27:09;24.70;99.90
25436;DHT22;13363;52.772;-3.890;2023-06-14T06:29:36;25.30;99.90
25436;DHT22;13363;52.772;-3.890;2023-06-14T06:32:02;25.80;99.90
25436;DHT22;13363;52.772;-3.890;2023-06-14T06:34:28;25.00;99.90
25436;DHT22;13363;52.772;-3.890;2023-06-14T06:36:54;24.80;99.90
25436;DHT22;13363;52.772;-3.890;2023-06-14T06:39:20;24.90;99.90
25436;DHT22;13363;52.772;-3.890;2023-06-14T06:41:46;24.90;99.90
25436;DHT22;13363;52.772;-3.890;2023-06-14T06:44:12;25.10;99.90
25436;DHT22;13363;52.772;-3.890;2023-06-14T06:46:38;25.90;99.90
25436;DHT22;13363;52.772;-3.890;2023-06-14T06:49:08;26.60;99.90
25436;DHT22;13363;52.772;-3.890;2023-06-14T06:51:41;27.70;99.90
25436;DHT22;13363;52.772;-3.890;2023-06-14T06:54:08;27.60;99.90
25436;DHT22;13363;52.772;-3.890;2023-06-14T06:56:35;26.60;99.90
25436;DHT22;13363;52.772;-3.890;2023-06-14T06:59:01;26.00;99.90
25436;DHT22;13363;52.772;-3.890;2023-06-14T07:01:27;26.70;99.90
25436;DHT22;13363;52.772;-3.890;2023-06-14T07:03:55;27.30;99.90
25436;DHT22;13363;52.772;-3.890;2023-06-14T07:06:21;27.40;99.90
25436;DHT22;13363;52.772;-3.890;2023-06-14T07:08:47;27.30;99.90
25436;DHT22;13363;52.772;-3.890;2023-06-14T07:11:14;27.50;99.90
25436;DHT22;13363;52.772;-3.890;2023-06-14T07:13:40;28.20;99.90
25436;DHT22;13363;52.772;-3.890;2023-06-14T07:16:06;29.00;99.90
25436;DHT22;13363;52.772;-3.890;2023-06-14T07:18:32;28.90;99.90
25436;DHT22;13363;52.772;-3.890;2023-06-14T07:21:01;28.90;99.90
25436;DHT22;13363;52.772;-3.890;2023-06-14T07:23:36;28.50;99.90
25436;DHT22;13363;52.772;-3.890;2023-06-14T07:26:08;29.00;99.90
25436;DHT22;13363;52.772;-3.890;2023-06-14T07:28:40;29.50;99.90
25436;DHT22;13363;52.772;-3.890;2023-06-14T07:31:10;28.00;99.90
25436;DHT22;13363;52.772;-3.890;2023-06-14T07:33:36;27.50;99.90
25436;DHT22;13363;52.772;-3.890;2023-06-14T07:36:02;26.80;99.90
25436;DHT22;13363;52.772;-3.890;2023-06-14T07:38:28;26.70;99.90
25436;DHT22;13363;52.772;-3.890;2023-06-14T07:40:54;26.90;99.90
25436;DHT22;13363;52.772;-3.890;2023-06-14T07:43:20;28.10;99.90
25436;DHT22;13363;52.772;-3.890;2023-06-14T07:45:46;27.90;99.90
25436;DHT22;13363;52.772;-3.890;2023-06-14T07:48:12;28.70;99.90
25436;DHT22;13363;52.772;-3.890;2023-06-14T07:50:38;29.70;99.90
25436;DHT22;13363;52.772;-3.890;2023-06-14T07:53:03;30.60;99.90
25436;DHT22;13363;52.772;-3.890;2023-06-14T07:55:29;31.20;99.90
25436;DHT22;13363;52.772;-3.890;2023-06-14T07:57:56;31.20;99.90
25436;DHT22;13363;52.772;-3.890;2023-06-14T08:00:22;30.20;99.90
25436;DHT22;13363;52.772;-3.890;2023-06-14T08:02:48;32.10;99.90
25436;DHT22;13363;52.772;-3.890;2023-06-14T08:05:14;32.30;99.90
25436;DHT22;13363;52.772;-3.890;2023-06-14T08:07:40;33.00;99.90
25436;DHT22;13363;52.772;-3.890;2023-06-14T08:10:07;32.80;99.90
25436;DHT22;13363;52.772;-3.890;2023-06-14T08:12:33;30.80;99.90
25436;DHT22;13363;52.772;-3.890;2023-06-14T08:14:59;30.10;99.90
25436;DHT22;13363;52.772;-3.890;2023-06-14T08:17:25;27.90;99.90
25436;DHT22;13363;52.772;-3.890;2023-06-14T08:19:52;28.50;99.90
25436;DHT22;13363;52.772;-3.890;2023-06-14T08:22:20;29.10;99.90
25436;DHT22;13363;52.772;-3.890;2023-06-14T08:24:47;29.60;99.90
25436;DHT22;13363;52.772;-3.890;2023-06-14T08:27:13;30.40;99.90
25436;DHT22;13363;52.772;-3.890;2023-06-14T08:29:40;31.10;99.90
25436;DHT22;13363;52.772;-3.890;2023-06-14T08:32:07;31.20;99.90
25436;DHT22;13363;52.772;-3.890;2023-06-14T08:34:33;31.70;99.90
25436;DHT22;13363;52.772;-3.890;2023-06-14T08:36:59;32.20;99.90
25436;DHT22;13363;52.772;-3.890;2023-06-14T08:39:26;31.20;99.90
25436;DHT22;13363;52.772;-3.890;2023-06-14T08:41:56;28.50;99.90
25436;DHT22;13363;52.772;-3.890;2023-06-14T08:44:23;28.90;99.90
25436;DHT22;13363;52.772;-3.890;2023-06-14T08:46:49;29.80;99.90
25436;DHT22;13363;52.772;-3.890;2023-06-14T08:49:17;29.00;99.90
25436;DHT22;13363;52.772;-3.890;2023-06-14T08:51:50;28.10;99.90
25436;DHT22;13363;52.772;-3.890;2023-06-14T08:54:20;28.20;99.90
25436;DHT22;13363;52.772;-3.890;2023-06-14T08:56:46;28.10;99.90
25436;DHT22;13363;52.772;-3.890;2023-06-14T08:59:14;30.20;99.90
25436;DHT22;13363;52.772;-3.890;2023-06-14T09:01:41;30.60;99.90
25436;DHT22;13363;52.772;-3.890;2023-06-14T09:04:07;29.80;99.90
25436;DHT22;13363;52.772;-3.890;2023-06-14T09:06:34;28.00;99.90
25436;DHT22;13363;52.772;-3.890;2023-06-14T09:09:00;28.20;99.90
25436;DHT22;13363;52.772;-3.890;2023-06-14T09:11:27;27.70;99.90
25436;DHT22;13363;52.772;-3.890;2023-06-14T09:13:53;28.80;99.90
25436;DHT22;13363;52.772;-3.890;2023-06-14T09:18:46;28.90;99.90
25436;DHT22;13363;52.772;-3.890;2023-06-14T09:21:17;28.70;99.90
25436;DHT22;13363;52.772;-3.890;2023-06-14T09:23:44;29.50;99.90
25436;DHT22;13363;52.772;-3.890;2023-06-14T09:26:12;29.70;99.90
25436;DHT22;13363;52.772;-3.890;2023-06-14T09:38:27;29.10;99.90
25436;DHT22;13363;52.772;-3.890;2023-06-14T09:40:57;29.50;99.90
25436;DHT22;13363;52.772;-3.890;2023-06-14T09:43:23;29.20;99.90
25436;DHT22;13363;52.772;-3.890;2023-06-14T09:45:50;28.60;99.90
25436;DHT22;13363;52.772;-3.890;2023-06-14T09:48:17;28.70;99.90
25436;DHT22;13363;52.772;-3.890;2023-06-14T09:50:50;28.30;99.90
25436;DHT22;13363;52.772;-3.890;2023-06-14T09:53:16;28.80;99.90
25436;DHT22;13363;52.772;-3.890;2023-06-14T09:55:46;28.80;99.90
25436;DHT22;13363;52.772;-3.890;2023-06-14T09:58:14;28.60;99.90
25436;DHT22;13363;52.772;-3.890;2023-06-14T10:00:42;27.60;99.90
25436;DHT22;13363;52.772;-3.890;2023-06-14T10:03:21;27.60;99.90
25436;DHT22;13363;52.772;-3.890;2023-06-14T10:05:50;27.80;99.90
25436;DHT22;13363;52.772;-3.890;2023-06-14T10:08:19;28.50;99.90
25436;DHT22;13363;52.772;-3.890;2023-06-14T10:10:47;29.00;99.90
25436;DHT22;13363;52.772;-3.890;2023-06-14T10:13:14;28.70;99.90
25436;DHT22;13363;52.772;-3.890;2023-06-14T10:18:48;28.70;99.90
25436;DHT22;13363;52.772;-3.890;2023-06-14T10:24:05;29.20;99.90
25436;DHT22;13363;52.772;-3.890;2023-06-14T10:26:32;29.40;99.90
25436;DHT22;13363;52.772;-3.890;2023-06-14T10:29:07;29.30;99.90
25436;DHT22;13363;52.772;-3.890;2023-06-14T10:31:41;28.90;99.90
25436;DHT22;13363;52.772;-3.890;2023-06-14T10:34:08;28.80;99.90
25436;DHT22;13363;52.772;-3.890;2023-06-14T10:39:07;28.20;99.90
25436;DHT22;13363;52.772;-3.890;2023-06-14T10:41:40;28.80;99.90
25436;DHT22;13363;52.772;-3.890;2023-06-14T10:49:04;28.80;99.90
25436;DHT22;13363;52.772;-3.890;2023-06-14T10:51:39;29.00;99.90
25436;DHT22;13363;52.772;-3.890;2023-06-14T10:54:12;29.30;99.90
25436;DHT22;13363;52.772;-3.890;2023-06-14T10:56:50;29.60;99.90
25436;DHT22;13363;52.772;-3.890;2023-06-14T10:59:17;29.80;99.90
25436;DHT22;13363;52.772;-3.890;2023-06-14T11:04:47;28.50;99.90
25436;DHT22;13363;52.772;-3.890;2023-06-14T11:12:48;29.90;99.90
25436;DHT22;13363;52.772;-3.890;2023-06-14T11:15:14;30.10;99.90
25436;DHT22;13363;52.772;-3.890;2023-06-14T11:17:52;29.30;99.90
25436;DHT22;13363;52.772;-3.890;2023-06-14T11:20:19;29.30;99.90
25436;DHT22;13363;52.772;-3.890;2023-06-14T11:22:45;29.60;99.90
25436;DHT22;13363;52.772;-3.890;2023-06-14T11:25:12;29.80;99.90
25436;DHT22;13363;52.772;-3.890;2023-06-14T11:27:38;29.10;99.90
25436;DHT22;13363;52.772;-3.890;2023-06-14T11:30:07;29.20;99.90
25436;DHT22;13363;52.772;-3.890;2023-06-14T11:32:33;29.60;99.90
25436;DHT22;13363;52.772;-3.890;2023-06-14T11:34:59;29.80;99.90
25436;DHT22;13363;52.772;-3.890;2023-06-14T11:37:27;29.20;99.90
25436;DHT22;13363;52.772;-3.890;2023-06-14T11:39:57;29.30;99.90
25436;DHT22;13363;52.772;-3.890;2023-06-14T11:42:26;29.50;99.90
25436;DHT22;13363;52.772;-3.890;2023-06-14T11:44:53;29.40;99.90
25436;DHT22;13363;52.772;-3.890;2023-06-14T11:47:19;29.40;99.90
25436;DHT22;13363;52.772;-3.890;2023-06-14T11:49:45;29.50;99.90
25436;DHT22;13363;52.772;-3.890;2023-06-14T11:52:12;29.70;99.90
25436;DHT22;13363;52.772;-3.890;2023-06-14T11:54:38;29.40;99.90
25436;DHT22;13363;52.772;-3.890;2023-06-14T11:57:06;29.30;99.90
25436;DHT22;13363;52.772;-3.890;2023-06-14T11:59:41;29.30;99.90
25436;DHT22;13363;52.772;-3.890;2023-06-14T12:02:09;29.30;99.90
25436;DHT22;13363;52.772;-3.890;2023-06-14T12:04:35;29.40;99.90
25436;DHT22;13363;52.772;-3.890;2023-06-14T12:07:11;29.50;99.90
25436;DHT22;13363;52.772;-3.890;2023-06-14T12:12:21;29.30;99.90
25436;DHT22;13363;52.772;-3.890;2023-06-14T12:14:48;29.50;99.90
25436;DHT22;13363;52.772;-3.890;2023-06-14T12:17:16;29.70;99.90
25436;DHT22;13363;52.772;-3.890;2023-06-14T12:19:43;29.80;99.90
25436;DHT22;13363;52.772;-3.890;2023-06-14T12:22:13;30.00;99.90
25436;DHT22;13363;52.772;-3.890;2023-06-14T12:24:42;29.90;99.90
25436;DHT22;13363;52.772;-3.890;2023-06-14T12:27:08;30.10;99.90
25436;DHT22;13363;52.772;-3.890;2023-06-14T12:29:34;29.40;99.90
25436;DHT22;13363;52.772;-3.890;2023-06-14T12:32:01;28.50;99.90
25436;DHT22;13363;52.772;-3.890;2023-06-14T12:34:27;28.00;99.90
25436;DHT22;13363;52.772;-3.890;2023-06-14T12:36:54;27.70;99.90
25436;DHT22;13363;52.772;-3.890;2023-06-14T12:39:20;28.30;99.90
25436;DHT22;13363;52.772;-3.890;2023-06-14T12:41:46;28.70;99.90
25436;DHT22;13363;52.772;-3.890;2023-06-14T12:44:13;29.10;99.90
25436;DHT22;13363;52.772;-3.890;2023-06-14T12:46:40;29.50;99.90
25436;DHT22;13363;52.772;-3.890;2023-06-14T12:49:08;29.80;99.90
25436;DHT22;13363;52.772;-3.890;2023-06-14T12:51:34;29.60;99.90
25436;DHT22;13363;52.772;-3.890;2023-06-14T12:54:00;29.60;99.90
25436;DHT22;13363;52.772;-3.890;2023-06-14T12:56:26;29.80;99.90
25436;DHT22;13363;52.772;-3.890;2023-06-14T12:58:52;29.90;99.90
25436;DHT22;13363;52.772;-3.890;2023-06-14T13:01:19;30.00;99.90
25436;DHT22;13363;52.772;-3.890;2023-06-14T13:03:46;30.20;99.90
25436;DHT22;13363;52.772;-3.890;2023-06-14T13:06:12;30.10;99.90
25436;DHT22;13363;52.772;-3.890;2023-06-14T13:08:37;29.90;99.90
25436;DHT22;13363;52.772;-3.890;2023-06-14T13:11:03;29.90;99.90
25436;DHT22;13363;52.772;-3.890;2023-06-14T13:13:31;29.10;99.90
25436;DHT22;13363;52.772;-3.890;2023-06-14T13:15:56;29.30;99.90
25436;DHT22;13363;52.772;-3.890;2023-06-14T13:18:22;29.40;99.90
25436;DHT22;13363;52.772;-3.890;2023-06-14T13:23:18;28.30;99.90
25436;DHT22;13363;52.772;-3.890;2023-06-14T13:25:45;28.30;99.90
25436;DHT22;13363;52.772;-3.890;2023-06-14T13:30:37;27.90;99.90
25436;DHT22;13363;52.772;-3.890;2023-06-14T13:33:03;28.00;99.90
25436;DHT22;13363;52.772;-3.890;2023-06-14T13:35:29;28.50;99.90
25436;DHT22;13363;52.772;-3.890;2023-06-14T13:37:55;28.60;99.90
25436;DHT22;13363;52.772;-3.890;2023-06-14T13:40:21;28.90;99.90
25436;DHT22;13363;52.772;-3.890;2023-06-14T13:42:47;29.10;99.90
25436;DHT22;13363;52.772;-3.890;2023-06-14T13:45:15;29.30;99.90
25436;DHT22;13363;52.772;-3.890;2023-06-14T13:47:40;29.30;99.90
25436;DHT22;13363;52.772;-3.890;2023-06-14T13:50:07;28.80;99.90
25436;DHT22;13363;52.772;-3.890;2023-06-14T13:52:33;29.10;99.90
25436;DHT22;13363;52.772;-3.890;2023-06-14T13:54:59;29.10;99.90
25436;DHT22;13363;52.772;-3.890;2023-06-14T13:57:26;28.90;99.90
25436;DHT22;13363;52.772;-3.890;2023-06-14T13:59:52;29.10;99.90
25436;DHT22;13363;52.772;-3.890;2023-06-14T14:02:21;29.20;99.90
25436;DHT22;13363;52.772;-3.890;2023-06-14T14:04:47;29.10;99.90
25436;DHT22;13363;52.772;-3.890;2023-06-14T14:07:19;28.80;99.90
25436;DHT22;13363;52.772;-3.890;2023-06-14T14:09:45;28.80;99.90
25436;DHT22;13363;52.772;-3.890;2023-06-14T14:12:13;28.60;99.90
25436;DHT22;13363;52.772;-3.890;2023-06-14T14:17:06;29.30;99.90
25436;DHT22;13363;52.772;-3.890;2023-06-14T14:19:32;29.20;99.90
25436;DHT22;13363;52.772;-3.890;2023-06-14T14:21:58;29.00;99.90
25436;DHT22;13363;52.772;-3.890;2023-06-14T14:24:24;28.80;99.90
25436;DHT22;13363;52.772;-3.890;2023-06-14T14:26:51;29.00;99.90
25436;DHT22;13363;52.772;-3.890;2023-06-14T14:29:19;29.20;99.90
25436;DHT22;13363;52.772;-3.890;2023-06-14T14:31:45;29.00;99.90
25436;DHT22;13363;52.772;-3.890;2023-06-14T14:34:11;28.60;99.90
25436;DHT22;13363;52.772;-3.890;2023-06-14T14:36:37;29.00;99.90
25436;DHT22;13363;52.772;-3.890;2023-06-14T14:39:08;29.20;99.90
25436;DHT22;13363;52.772;-3.890;2023-06-14T14:41:34;29.40;99.90
25436;DHT22;13363;52.772;-3.890;2023-06-14T14:44:00;29.50;99.90
25436;DHT22;13363;52.772;-3.890;2023-06-14T14:46:27;29.60;99.90
25436;DHT22;13363;52.772;-3.890;2023-06-14T14:48:53;29.70;99.90
25436;DHT22;13363;52.772;-3.890;2023-06-14T14:51:19;29.80;99.90
25436;DHT22;13363;52.772;-3.890;2023-06-14T14:53:45;29.50;99.90
25436;DHT22;13363;52.772;-3.890;2023-06-14T14:56:11;29.20;99.90
25436;DHT22;13363;52.772;-3.890;2023-06-14T14:58:37;29.10;99.90
25436;DHT22;13363;52.772;-3.890;2023-06-14T15:01:03;28.90;99.90
25436;DHT22;13363;52.772;-3.890;2023-06-14T15:03:31;28.90;99.90
25436;DHT22;13363;52.772;-3.890;2023-06-14T15:05:57;28.50;99.90
25436;DHT22;13363;52.772;-3.890;2023-06-14T15:08:23;28.40;99.90
25436;DHT22;13363;52.772;-3.890;2023-06-14T15:10:49;28.10;99.90
25436;DHT22;13363;52.772;-3.890;2023-06-14T15:13:15;28.20;99.90
25436;DHT22;13363;52.772;-3.890;2023-06-14T15:15:41;28.60;99.90
25436;DHT22;13363;52.772;-3.890;2023-06-14T15:18:06;28.80;99.90
25436;DHT22;13363;52.772;-3.890;2023-06-14T15:20:32;28.90;99.90
25436;DHT22;13363;52.772;-3.890;2023-06-14T15:23:00;28.60;99.90
25436;DHT22;13363;52.772;-3.890;2023-06-14T15:25:30;28.60;99.90
25436;DHT22;13363;52.772;-3.890;2023-06-14T15:27:58;28.70;99.90
25436;DHT22;13363;52.772;-3.890;2023-06-14T15:30:24;28.60;99.90
25436;DHT22;13363;52.772;-3.890;2023-06-14T15:32:50;28.60;99.90
25436;DHT22;13363;52.772;-3.890;2023-06-14T15:35:17;28.70;99.90
25436;DHT22;13363;52.772;-3.890;2023-06-14T15:37:47;28.90;99.90
25436;DHT22;13363;52.772;-3.890;2023-06-14T15:40:13;28.80;99.90
25436;DHT22;13363;52.772;-3.890;2023-06-14T15:42:39;28.80;99.90
25436;DHT22;13363;52.772;-3.890;2023-06-14T15:45:05;28.50;99.90
25436;DHT22;13363;52.772;-3.890;2023-06-14T15:47:31;28.40;99.90
25436;DHT22;13363;52.772;-3.890;2023-06-14T15:52:23;27.90;99.90
25436;DHT22;13363;52.772;-3.890;2023-06-14T15:54:49;27.90;99.90
25436;DHT22;13363;52.772;-3.890;2023-06-14T15:57:15;28.10;99.90
25436;DHT22;13363;52.772;-3.890;2023-06-14T15:59:41;28.10;99.90
25436;DHT22;13363;52.772;-3.890;2023-06-14T16:02:07;28.20;99.90
25436;DHT22;13363;52.772;-3.890;2023-06-14T16:04:32;28.30;99.90
25436;DHT22;13363;52.772;-3.890;2023-06-14T16:06:58;28.20;99.90
25436;DHT22;13363;52.772;-3.890;2023-06-14T16:09:24;28.10;99.90
25436;DHT22;13363;52.772;-3.890;2023-06-14T16:11:50;28.10;99.90
25436;DHT22;13363;52.772;-3.890;2023-06-14T16:14:16;28.20;99.90
25436;DHT22;13363;52.772;-3.890;2023-06-14T16:16:42;28.40;99.90
25436;DHT22;13363;52.772;-3.890;2023-06-14T16:21:34;28.50;99.90
25436;DHT22;13363;52.772;-3.890;2023-06-14T16:24:03;28.40;99.90
25436;DHT22;13363;52.772;-3.890;2023-06-14T16:26:29;28.40;99.90
25436;DHT22;13363;52.772;-3.890;2023-06-14T16:28:55;28.40;99.90
25436;DHT22;13363;52.772;-3.890;2023-06-14T16:31:21;28.50;99.90
25436;DHT22;13363;52.772;-3.890;2023-06-14T16:33:48;28.30;99.90
25436;DHT22;13363;52.772;-3.890;2023-06-14T16:36:21;28.30;99.90
25436;DHT22;13363;52.772;-3.890;2023-06-14T16:38:47;28.00;99.90
25436;DHT22;13363;52.772;-3.890;2023-06-14T16:41:13;27.50;99.90
25436;DHT22;13363;52.772;-3.890;2023-06-14T16:43:39;27.30;99.90
25436;DHT22;13363;52.772;-3.890;2023-06-14T16:48:31;27.10;99.90
25436;DHT22;13363;52.772;-3.890;2023-06-14T16:50:57;27.10;99.90
25436;DHT22;13363;52.772;-3.890;2023-06-14T16:53:23;27.10;99.90
25436;DHT22;13363;52.772;-3.890;2023-06-14T16:55:49;27.20;99.90
25436;DHT22;13363;52.772;-3.890;2023-06-14T16:58:15;27.20;99.90
25436;DHT22;13363;52.772;-3.890;2023-06-14T17:00:40;27.30;99.90
25436;DHT22;13363;52.772;-3.890;2023-06-14T17:03:06;27.30;99.90
25436;DHT22;13363;52.772;-3.890;2023-06-14T17:05:32;27.30;99.90
25436;DHT22;13363;52.772;-3.890;2023-06-14T17:07:59;27.10;99.90
25436;DHT22;13363;52.772;-3.890;2023-06-14T17:10:25;27.90;99.90
25436;DHT22;13363;52.772;-3.890;2023-06-14T17:12:52;27.20;99.90
25436;DHT22;13363;52.772;-3.890;2023-06-14T17:15:18;27.20;99.90
25436;DHT22;13363;52.772;-3.890;2023-06-14T17:17:44;27.10;99.90
25436;DHT22;13363;52.772;-3.890;2023-06-14T17:20:11;27.10;99.90